createdAt,value
2023-04-07T00:04:26.691Z,10.05
2023-04-07T00:09:35.443Z,10.06
2023-04-07T00:14:38.353Z,10.12
2023-04-07T00:19:42.474Z,10.14
2023-04-07T00:24:45.321Z,10.11
2023-04-07T00:29:48.128Z,10.02
2023-04-07T00:34:52.266Z,9.78
2023-04-07T00:40:18.342Z,9.75
2023-04-07T00:45:21.744Z,9.78
2023-04-07T00:50:29.372Z,10.06
2023-04-07T00:55:32.228Z,9.60
2023-04-07T01:00:39.307Z,9.91
2023-04-07T01:06:04.075Z,9.72
2023-04-07T01:11:24.106Z,9.85
2023-04-07T01:16:32.292Z,9.66
2023-04-07T01:21:40.469Z,9.43
2023-04-07T01:26:44.057Z,9.64
2023-04-07T01:31:56.630Z,9.53
2023-04-07T01:37:02.533Z,9.68
2023-04-07T01:42:08.438Z,9.61
2023-04-07T01:47:13.389Z,9.44
2023-04-07T01:52:35.159Z,9.55
2023-04-07T01:57:37.995Z,9.23
2023-04-07T02:02:56.161Z,8.94
2023-04-07T02:08:12.459Z,8.78
2023-04-07T02:13:19.318Z,8.43
2023-04-07T02:18:44.787Z,8.34
2023-04-07T02:23:48.041Z,8.23
2023-04-07T02:28:51.287Z,7.94
2023-04-07T02:33:55.512Z,8.44
2023-04-07T02:39:12.287Z,8.07
2023-04-07T02:44:15.514Z,7.95
2023-04-07T02:49:20.386Z,7.99
2023-04-07T02:54:23.308Z,8.05
2023-04-07T02:59:26.498Z,7.83
2023-04-07T03:04:31.716Z,7.79
2023-04-07T03:09:36.552Z,7.97
2023-04-07T03:14:39.674Z,7.75
2023-04-07T03:19:44.330Z,8.03
2023-04-07T03:24:47.256Z,8.24
2023-04-07T03:29:51.773Z,8.05
2023-04-07T03:34:57.116Z,7.92
2023-04-07T03:40:00.213Z,8.29
2023-04-07T03:45:08.980Z,8.24
2023-04-07T03:50:17.125Z,8.32
2023-04-07T03:55:38.044Z,8.21
2023-04-07T04:00:48.939Z,7.87
2023-04-07T04:05:53.878Z,8.11
2023-04-07T04:11:02.795Z,8.26
2023-04-07T04:16:14.505Z,7.87
2023-04-07T04:21:20.023Z,8.03
2023-04-07T04:26:25.968Z,7.63
2023-04-07T04:31:33.158Z,8.00
2023-04-07T04:42:45.778Z,7.89
2023-04-07T04:47:49.701Z,7.60
2023-04-07T04:52:54.592Z,7.89
2023-04-07T04:57:59.568Z,7.72
2023-04-07T05:03:13.686Z,8.01
2023-04-07T05:08:21.964Z,7.95
2023-04-07T05:13:26.549Z,7.99
2023-04-07T05:18:30.576Z,7.87
2023-04-07T05:23:36.364Z,7.99
2023-04-07T05:28:40.926Z,8.04
2023-04-07T05:33:50.944Z,8.04
2023-04-07T05:38:57.611Z,7.92
2023-04-07T05:44:00.599Z,8.13
2023-04-07T05:49:18.939Z,8.29
2023-04-07T05:54:27.767Z,8.21
2023-04-07T05:59:30.839Z,8.53
2023-04-07T06:04:35.380Z,8.90
2023-04-07T06:09:42.609Z,10.10
2023-04-07T06:14:48.345Z,13.44
2023-04-07T06:19:51.215Z,15.29
2023-04-07T06:24:55.361Z,15.31
2023-04-07T06:29:58.131Z,15.33
2023-04-07T06:35:02.149Z,16.32
2023-04-07T06:40:08.948Z,16.98
2023-04-07T06:45:12.129Z,17.99
2023-04-07T06:50:14.938Z,17.84
2023-04-07T06:55:19.191Z,20.15
2023-04-07T07:00:22.976Z,18.64
2023-04-07T07:05:26.213Z,19.61
2023-04-07T07:10:30.628Z,20.33
2023-04-07T07:15:33.436Z,21.20
2023-04-07T07:20:36.281Z,20.32
2023-04-07T07:25:40.566Z,20.87
2023-04-07T07:30:43.481Z,22.59
2023-04-07T07:35:46.246Z,22.03
2023-04-07T07:40:50.365Z,22.66
2023-04-07T07:45:53.266Z,20.32
2023-04-07T07:50:56.967Z,19.16
2023-04-07T07:56:01.916Z,17.71
2023-04-07T08:01:05.438Z,15.75
2023-04-07T08:06:09.378Z,14.15
2023-04-07T08:11:13.536Z,13.78
2023-04-07T08:16:16.475Z,13.77
2023-04-07T08:21:20.112Z,13.77
2023-04-07T08:26:24.233Z,13.48
2023-04-07T08:31:27.578Z,13.61
2023-04-07T08:36:31.507Z,13.29
2023-04-07T08:41:39.056Z,13.43
2023-04-07T08:46:42.379Z,13.27
2023-04-07T08:51:47.338Z,13.54
2023-04-07T08:56:51.788Z,13.19
2023-04-07T09:01:56.265Z,13.86
2023-04-07T09:07:00.072Z,13.98
2023-04-07T09:12:04.296Z,13.22
2023-04-07T09:17:07.061Z,14.03
2023-04-07T09:22:12.493Z,14.10
2023-04-07T09:27:19.121Z,14.10
2023-04-07T09:32:38.634Z,13.85
2023-04-07T09:37:42.595Z,13.51
2023-04-07T09:42:50.046Z,13.67
2023-04-07T09:47:52.982Z,13.98
2023-04-07T09:52:56.189Z,13.95
2023-04-07T09:58:00.972Z,13.99
2023-04-07T10:03:05.266Z,14.68
2023-04-07T10:08:08.316Z,15.29
2023-04-07T10:13:13.480Z,14.56
2023-04-07T10:18:19.078Z,14.77
2023-04-07T10:23:25.769Z,14.68
2023-04-07T10:28:32.742Z,14.24
2023-04-07T10:33:46.839Z,14.49
2023-04-07T10:39:24.344Z,14.56
2023-04-07T10:44:50.467Z,14.88
2023-04-07T10:50:18.078Z,14.72
2023-04-07T10:55:32.691Z,15.19
2023-04-07T11:00:36.792Z,15.27
2023-04-07T11:05:39.775Z,14.93
2023-04-07T11:10:48.816Z,15.05
2023-04-07T11:15:53.160Z,14.58
2023-04-07T11:20:58.472Z,15.34
2023-04-07T11:26:02.735Z,14.42
2023-04-07T11:31:07.083Z,15.45
2023-04-07T11:36:09.933Z,15.03
2023-04-07T11:41:14.043Z,15.16
2023-04-07T11:46:19.838Z,14.97
2023-04-07T11:51:24.041Z,15.19
2023-04-07T11:56:27.994Z,14.79
2023-04-07T12:01:42.830Z,14.64
2023-04-07T12:06:47.321Z,14.23
2023-04-07T12:11:50.945Z,14.08
2023-04-07T12:16:57.766Z,14.66
2023-04-07T12:22:00.667Z,15.25
2023-04-07T12:27:03.663Z,14.52
2023-04-07T12:32:07.785Z,15.08
2023-04-07T12:37:10.530Z,15.04
2023-04-07T12:42:22.861Z,14.58
2023-04-07T12:47:27.242Z,14.99
2023-04-07T12:52:30.628Z,14.65
2023-04-07T12:57:33.729Z,14.40
2023-04-07T13:02:38.131Z,14.65
2023-04-07T13:07:41.016Z,14.69
2023-04-07T13:12:43.870Z,14.49
2023-04-07T13:17:48.241Z,14.22
2023-04-07T13:23:02.845Z,14.51
2023-04-07T13:28:20.968Z,14.55
2023-04-07T13:33:33.095Z,14.54
2023-04-07T13:38:36.641Z,15.05
2023-04-07T13:43:45.482Z,15.47
2023-04-07T13:48:59.394Z,14.70
2023-04-07T13:54:02.239Z,14.94
2023-04-07T13:59:07.466Z,14.68
2023-04-07T14:04:31.243Z,14.58
2023-04-07T14:16:27.717Z,14.63
2023-04-07T14:22:09.351Z,14.71
2023-04-07T14:27:20.647Z,14.78
2023-04-07T14:32:25.151Z,14.84
2023-04-07T14:37:30.619Z,14.42
2023-04-07T14:42:33.829Z,14.59
2023-04-07T14:47:41.226Z,15.41
2023-04-07T14:52:47.861Z,14.78
2023-04-07T14:57:59.224Z,14.23
2023-04-07T15:03:07.053Z,13.26
2023-04-07T15:08:11.440Z,13.67
2023-04-07T15:13:16.406Z,13.05
2023-04-07T15:18:19.318Z,13.60
2023-04-07T15:23:37.887Z,13.14
2023-04-07T15:28:42.265Z,13.96
2023-04-07T15:33:49.322Z,13.88
2023-04-07T15:38:57.884Z,14.17
2023-04-07T15:44:01.969Z,13.97
2023-04-07T15:49:06.378Z,13.74
2023-04-07T15:54:13.203Z,12.79
2023-04-07T15:59:20.534Z,13.27
2023-04-07T16:04:45.395Z,11.71
2023-04-07T16:09:49.590Z,12.34
2023-04-07T16:14:52.630Z,12.55
2023-04-07T16:19:55.640Z,12.86
2023-04-07T16:25:01.946Z,12.68
2023-04-07T16:30:12.306Z,12.73
2023-04-07T16:35:26.646Z,12.05
2023-04-07T16:40:33.291Z,11.82
2023-04-07T16:45:38.248Z,12.16
2023-04-07T16:50:42.688Z,12.35
2023-04-07T16:55:47.071Z,12.04
2023-04-07T17:00:49.777Z,11.91
2023-04-07T17:05:58.217Z,11.27
2023-04-07T17:11:02.754Z,11.26
2023-04-07T17:16:06.028Z,10.74
2023-04-07T17:21:08.862Z,11.35
2023-04-07T17:26:13.035Z,10.64
2023-04-07T17:31:15.971Z,10.60
2023-04-07T17:36:20.550Z,10.74
2023-04-07T17:41:28.068Z,10.79
2023-04-07T17:46:31.179Z,10.34
2023-04-07T17:51:34.041Z,10.45
2023-04-07T17:56:38.789Z,10.58
2023-04-07T18:01:41.781Z,10.45
2023-04-07T18:06:45.003Z,10.08
2023-04-07T18:11:49.099Z,9.81
2023-04-07T18:16:54.089Z,9.85
2023-04-07T18:21:56.957Z,10.64
2023-04-07T18:27:02.492Z,9.88
2023-04-07T18:32:05.354Z,10.45
2023-04-07T18:37:08.134Z,10.41
2023-04-07T18:42:15.419Z,10.61
2023-04-07T18:47:20.639Z,9.92
2023-04-07T18:52:25.544Z,10.00
2023-04-07T18:57:31.230Z,9.78
2023-04-07T19:02:37.024Z,10.26
2023-04-07T19:07:40.362Z,10.21
2023-04-07T19:12:47.525Z,10.70
2023-04-07T19:17:52.158Z,10.10
2023-04-07T19:22:57.336Z,10.07
2023-04-07T19:28:04.195Z,9.85
2023-04-07T19:33:07.431Z,10.29
2023-04-07T19:38:10.375Z,10.14
2023-04-07T19:43:17.369Z,10.58
2023-04-07T19:48:25.729Z,10.51
2023-04-07T19:53:30.808Z,10.58
2023-04-07T19:58:35.299Z,10.00
2023-04-07T20:03:39.822Z,10.64
2023-04-07T20:08:42.708Z,10.42
2023-04-07T20:13:51.721Z,10.36
2023-04-07T20:18:55.128Z,10.49
2023-04-07T20:24:07.808Z,10.66
2023-04-07T20:29:12.067Z,10.94
2023-04-07T20:34:14.827Z,9.81
2023-04-07T20:39:20.450Z,10.58
2023-04-07T20:44:28.146Z,10.25
2023-04-07T20:55:07.621Z,11.09
2023-04-07T21:00:14.260Z,10.13
2023-04-07T21:05:17.260Z,10.12
2023-04-07T21:10:20.540Z,9.77
2023-04-07T21:15:28.837Z,9.97
2023-04-07T21:20:32.220Z,10.15
2023-04-07T21:25:35.229Z,10.62
2023-04-07T21:30:42.547Z,10.96
2023-04-07T21:35:54.966Z,10.29
2023-04-07T21:41:01.117Z,10.63
2023-04-07T21:46:05.743Z,10.64
2023-04-07T21:51:11.270Z,10.59
2023-04-07T21:56:26.815Z,10.75
2023-04-07T22:01:32.373Z,10.88
2023-04-07T22:06:35.292Z,10.86
2023-04-07T22:11:38.084Z,10.94
2023-04-07T22:16:42.382Z,10.59
2023-04-07T22:21:45.328Z,10.44
2023-04-07T22:26:57.491Z,10.65
2023-04-07T22:32:01.637Z,10.42
2023-04-07T22:37:06.655Z,10.30
2023-04-07T22:42:09.361Z,10.01
2023-04-07T22:47:13.426Z,9.97
2023-04-07T22:52:16.178Z,10.34
2023-04-07T23:02:46.627Z,10.54
2023-04-07T23:19:01.185Z,10.74
2023-04-07T23:24:18.214Z,10.55
2023-04-07T23:29:21.151Z,10.68
2023-04-07T23:34:25.326Z,10.72
2023-04-07T23:39:30.074Z,10.57
2023-04-07T23:44:32.838Z,10.53
2023-04-07T23:49:37.047Z,10.60
2023-04-07T23:54:41.104Z,10.93
2023-04-07T23:59:44.096Z,10.72
